sensor_id;sensor_type;location;lat;lon;timestamp;P1;durP1;ratioP1;P2;durP2;ratioP2
43700;SDS011;58809;47.984;7.964;2022-11-20T00:02:14;8.25;;;4.55;;
43700;SDS011;58809;47.984;7.964;2022-11-20T00:05:16;5.93;;;4.18;;
43700;SDS011;58809;47.984;7.964;2022-11-20T00:08:18;7.57;;;4.72;;
43700;SDS011;58809;47.984;7.964;2022-11-20T00:11:21;5.90;;;4.53;;
43700;SDS011;58809;47.984;7.964;2022-11-20T00:14:24;8.30;;;5.18;;
43700;SDS011;58809;47.984;7.964;2022-11-20T00:17:25;5.50;;;4.20;;
43700;SDS011;58809;47.984;7.964;2022-11-20T00:20:27;5.93;;;4.40;;
43700;SDS011;58809;47.984;7.964;2022-11-20T00:23:29;4.53;;;4.13;;
43700;SDS011;58809;47.984;7.964;2022-11-20T00:26:31;4.88;;;4.20;;
43700;SDS011;58809;47.984;7.964;2022-11-20T00:29:32;5.80;;;4.65;;
43700;SDS011;58809;47.984;7.964;2022-11-20T00:32:34;5.43;;;4.03;;
43700;SDS011;58809;47.984;7.964;2022-11-20T00:35:35;6.57;;;4.57;;
43700;SDS011;58809;47.984;7.964;2022-11-20T00:38:37;4.90;;;3.72;;
43700;SDS011;58809;47.984;7.964;2022-11-20T00:41:39;5.20;;;3.45;;
43700;SDS011;58809;47.984;7.964;2022-11-20T00:44:40;7.25;;;3.65;;
43700;SDS011;58809;47.984;7.964;2022-11-20T00:47:42;5.50;;;3.45;;
43700;SDS011;58809;47.984;7.964;2022-11-20T00:50:43;6.65;;;3.90;;
43700;SDS011;58809;47.984;7.964;2022-11-20T00:53:45;5.05;;;4.18;;
43700;SDS011;58809;47.984;7.964;2022-11-20T00:56:47;8.57;;;3.95;;
43700;SDS011;58809;47.984;7.964;2022-11-20T00:59:49;4.40;;;3.55;;
43700;SDS011;58809;47.984;7.964;2022-11-20T01:02:50;4.95;;;3.58;;
43700;SDS011;58809;47.984;7.964;2022-11-20T01:05:52;4.72;;;3.95;;
43700;SDS011;58809;47.984;7.964;2022-11-20T01:08:55;5.00;;;3.70;;
43700;SDS011;58809;47.984;7.964;2022-11-20T01:11:58;4.68;;;3.83;;
43700;SDS011;58809;47.984;7.964;2022-11-20T01:15:01;5.55;;;3.78;;
43700;SDS011;58809;47.984;7.964;2022-11-20T01:18:03;5.57;;;3.60;;
43700;SDS011;58809;47.984;7.964;2022-11-20T01:21:05;7.22;;;3.75;;
43700;SDS011;58809;47.984;7.964;2022-11-20T01:24:11;5.05;;;3.85;;
43700;SDS011;58809;47.984;7.964;2022-11-20T01:27:14;6.93;;;3.92;;
43700;SDS011;58809;47.984;7.964;2022-11-20T01:30:16;5.63;;;4.10;;
43700;SDS011;58809;47.984;7.964;2022-11-20T01:33:17;5.50;;;3.97;;
43700;SDS011;58809;47.984;7.964;2022-11-20T01:36:19;6.18;;;4.07;;
43700;SDS011;58809;47.984;7.964;2022-11-20T01:39:23;5.33;;;3.33;;
43700;SDS011;58809;47.984;7.964;2022-11-20T01:42:26;9.65;;;3.83;;
43700;SDS011;58809;47.984;7.964;2022-11-20T01:49:20;4.50;;;3.28;;
43700;SDS011;58809;47.984;7.964;2022-11-20T01:52:27;4.75;;;3.00;;
43700;SDS011;58809;47.984;7.964;2022-11-20T01:55:58;5.45;;;3.08;;
43700;SDS011;58809;47.984;7.964;2022-11-20T01:59:01;5.97;;;3.10;;
43700;SDS011;58809;47.984;7.964;2022-11-20T02:02:06;6.05;;;3.03;;
43700;SDS011;58809;47.984;7.964;2022-11-20T02:05:11;4.45;;;2.97;;
43700;SDS011;58809;47.984;7.964;2022-11-20T02:08:20;3.83;;;2.67;;
43700;SDS011;58809;47.984;7.964;2022-11-20T02:11:23;5.45;;;3.22;;
43700;SDS011;58809;47.984;7.964;2022-11-20T02:14:24;5.07;;;2.92;;
43700;SDS011;58809;47.984;7.964;2022-11-20T02:17:27;5.72;;;3.17;;
43700;SDS011;58809;47.984;7.964;2022-11-20T02:20:29;5.38;;;3.30;;
43700;SDS011;58809;47.984;7.964;2022-11-20T02:23:50;7.28;;;3.72;;
43700;SDS011;58809;47.984;7.964;2022-11-20T02:27:00;6.07;;;4.05;;
43700;SDS011;58809;47.984;7.964;2022-11-20T02:30:05;5.82;;;3.70;;
43700;SDS011;58809;47.984;7.964;2022-11-20T02:33:12;3.97;;;3.00;;
43700;SDS011;58809;47.984;7.964;2022-11-20T02:36:14;8.65;;;3.63;;
43700;SDS011;58809;47.984;7.964;2022-11-20T02:39:17;5.60;;;4.00;;
43700;SDS011;58809;47.984;7.964;2022-11-20T02:42:22;5.28;;;3.25;;
43700;SDS011;58809;47.984;7.964;2022-11-20T02:45:24;5.38;;;2.90;;
43700;SDS011;58809;47.984;7.964;2022-11-20T02:48:26;3.65;;;2.72;;
43700;SDS011;58809;47.984;7.964;2022-11-20T02:51:33;5.72;;;3.40;;
43700;SDS011;58809;47.984;7.964;2022-11-20T02:54:35;7.78;;;4.90;;
43700;SDS011;58809;47.984;7.964;2022-11-20T02:57:37;6.55;;;4.40;;
43700;SDS011;58809;47.984;7.964;2022-11-20T03:00:40;4.57;;;2.85;;
43700;SDS011;58809;47.984;7.964;2022-11-20T03:03:42;6.22;;;3.10;;
43700;SDS011;58809;47.984;7.964;2022-11-20T03:06:44;4.75;;;3.83;;
43700;SDS011;58809;47.984;7.964;2022-11-20T03:09:45;6.60;;;3.83;;
43700;SDS011;58809;47.984;7.964;2022-11-20T03:12:47;5.95;;;3.30;;
43700;SDS011;58809;47.984;7.964;2022-11-20T03:15:48;4.82;;;3.60;;
43700;SDS011;58809;47.984;7.964;2022-11-20T03:18:51;5.45;;;3.70;;
43700;SDS011;58809;47.984;7.964;2022-11-20T03:21:53;4.15;;;3.28;;
43700;SDS011;58809;47.984;7.964;2022-11-20T03:24:54;6.45;;;3.88;;
43700;SDS011;58809;47.984;7.964;2022-11-20T03:27:56;5.50;;;3.65;;
43700;SDS011;58809;47.984;7.964;2022-11-20T03:30:58;4.65;;;3.45;;
43700;SDS011;58809;47.984;7.964;2022-11-20T03:33:59;4.88;;;3.78;;
43700;SDS011;58809;47.984;7.964;2022-11-20T03:37:02;4.43;;;3.25;;
43700;SDS011;58809;47.984;7.964;2022-11-20T03:40:04;5.32;;;3.33;;
43700;SDS011;58809;47.984;7.964;2022-11-20T03:43:06;5.03;;;3.33;;
43700;SDS011;58809;47.984;7.964;2022-11-20T03:46:07;5.43;;;3.63;;
43700;SDS011;58809;47.984;7.964;2022-11-20T03:49:09;4.55;;;3.80;;
43700;SDS011;58809;47.984;7.964;2022-11-20T03:52:10;5.20;;;3.30;;
43700;SDS011;58809;47.984;7.964;2022-11-20T03:55:12;5.28;;;3.50;;
43700;SDS011;58809;47.984;7.964;2022-11-20T03:58:14;5.13;;;3.70;;
43700;SDS011;58809;47.984;7.964;2022-11-20T04:01:19;7.07;;;4.10;;
43700;SDS011;58809;47.984;7.964;2022-11-20T04:04:23;4.00;;;3.13;;
43700;SDS011;58809;47.984;7.964;2022-11-20T04:07:24;5.05;;;3.67;;
43700;SDS011;58809;47.984;7.964;2022-11-20T04:10:26;5.65;;;3.70;;
43700;SDS011;58809;47.984;7.964;2022-11-20T04:13:27;5.47;;;3.50;;
43700;SDS011;58809;47.984;7.964;2022-11-20T04:16:29;4.43;;;3.65;;
43700;SDS011;58809;47.984;7.964;2022-11-20T04:19:33;5.25;;;2.97;;
43700;SDS011;58809;47.984;7.964;2022-11-20T04:22:34;5.35;;;3.05;;
43700;SDS011;58809;47.984;7.964;2022-11-20T04:25:36;3.60;;;2.88;;
43700;SDS011;58809;47.984;7.964;2022-11-20T04:28:37;4.50;;;3.00;;
43700;SDS011;58809;47.984;7.964;2022-11-20T04:31:39;4.85;;;3.50;;
43700;SDS011;58809;47.984;7.964;2022-11-20T04:34:41;3.53;;;3.00;;
43700;SDS011;58809;47.984;7.964;2022-11-20T04:37:43;3.60;;;2.53;;
43700;SDS011;58809;47.984;7.964;2022-11-20T04:40:44;3.58;;;2.38;;
43700;SDS011;58809;47.984;7.964;2022-11-20T04:43:49;2.83;;;2.25;;
43700;SDS011;58809;47.984;7.964;2022-11-20T04:46:53;2.85;;;2.00;;
43700;SDS011;58809;47.984;7.964;2022-11-20T04:49:54;2.42;;;2.17;;
43700;SDS011;58809;47.984;7.964;2022-11-20T04:52:56;2.65;;;1.65;;
43700;SDS011;58809;47.984;7.964;2022-11-20T04:56:00;1.83;;;1.67;;
43700;SDS011;58809;47.984;7.964;2022-11-20T04:59:03;2.58;;;1.55;;
43700;SDS011;58809;47.984;7.964;2022-11-20T05:02:04;2.17;;;1.67;;
43700;SDS011;58809;47.984;7.964;2022-11-20T05:05:06;2.90;;;1.70;;
43700;SDS011;58809;47.984;7.964;2022-11-20T05:08:08;4.78;;;2.10;;
43700;SDS011;58809;47.984;7.964;2022-11-20T05:11:11;2.13;;;1.77;;
43700;SDS011;58809;47.984;7.964;2022-11-20T05:14:14;1.90;;;1.52;;
43700;SDS011;58809;47.984;7.964;2022-11-20T05:17:16;3.80;;;2.47;;
43700;SDS011;58809;47.984;7.964;2022-11-20T05:20:17;1.77;;;1.65;;
43700;SDS011;58809;47.984;7.964;2022-11-20T05:23:20;1.58;;;1.30;;
43700;SDS011;58809;47.984;7.964;2022-11-20T05:26:22;1.45;;;1.35;;
43700;SDS011;58809;47.984;7.964;2022-11-20T05:29:24;2.28;;;1.40;;
43700;SDS011;58809;47.984;7.964;2022-11-20T05:32:25;2.17;;;1.67;;
43700;SDS011;58809;47.984;7.964;2022-11-20T05:35:27;1.80;;;1.70;;
43700;SDS011;58809;47.984;7.964;2022-11-20T05:38:28;5.10;;;2.40;;
43700;SDS011;58809;47.984;7.964;2022-11-20T05:41:30;3.10;;;1.88;;
43700;SDS011;58809;47.984;7.964;2022-11-20T05:44:34;2.80;;;1.73;;
43700;SDS011;58809;47.984;7.964;2022-11-20T05:47:42;2.03;;;1.83;;
43700;SDS011;58809;47.984;7.964;2022-11-20T05:50:44;2.83;;;2.10;;
43700;SDS011;58809;47.984;7.964;2022-11-20T05:53:45;2.28;;;1.80;;
43700;SDS011;58809;47.984;7.964;2022-11-20T05:56:49;3.65;;;2.10;;
43700;SDS011;58809;47.984;7.964;2022-11-20T05:59:50;1.77;;;1.67;;
43700;SDS011;58809;47.984;7.964;2022-11-20T06:02:52;2.83;;;1.92;;
43700;SDS011;58809;47.984;7.964;2022-11-20T06:05:53;1.92;;;1.65;;
43700;SDS011;58809;47.984;7.964;2022-11-20T06:08:55;1.80;;;1.70;;
43700;SDS011;58809;47.984;7.964;2022-11-20T06:11:57;2.80;;;1.90;;
43700;SDS011;58809;47.984;7.964;2022-11-20T06:14:59;3.00;;;2.42;;
43700;SDS011;58809;47.984;7.964;2022-11-20T06:18:01;2.60;;;2.03;;
43700;SDS011;58809;47.984;7.964;2022-11-20T06:21:03;2.65;;;2.25;;
43700;SDS011;58809;47.984;7.964;2022-11-20T06:24:10;2.92;;;2.38;;
43700;SDS011;58809;47.984;7.964;2022-11-20T06:27:12;2.08;;;1.95;;
43700;SDS011;58809;47.984;7.964;2022-11-20T06:30:13;2.47;;;2.13;;
43700;SDS011;58809;47.984;7.964;2022-11-20T06:33:15;2.53;;;2.28;;
43700;SDS011;58809;47.984;7.964;2022-11-20T06:36:17;3.55;;;2.28;;
43700;SDS011;58809;47.984;7.964;2022-11-20T06:39:20;2.50;;;2.30;;
43700;SDS011;58809;47.984;7.964;2022-11-20T06:42:22;2.22;;;2.03;;
43700;SDS011;58809;47.984;7.964;2022-11-20T06:45:24;2.53;;;2.30;;
43700;SDS011;58809;47.984;7.964;2022-11-20T06:48:26;3.45;;;2.92;;
43700;SDS011;58809;47.984;7.964;2022-11-20T06:51:29;3.55;;;2.25;;
43700;SDS011;58809;47.984;7.964;2022-11-20T06:54:31;2.30;;;2.10;;
43700;SDS011;58809;47.984;7.964;2022-11-20T06:57:32;4.15;;;2.50;;
43700;SDS011;58809;47.984;7.964;2022-11-20T07:00:34;3.95;;;2.75;;
43700;SDS011;58809;47.984;7.964;2022-11-20T07:03:36;3.85;;;2.97;;
43700;SDS011;58809;47.984;7.964;2022-11-20T07:06:38;4.95;;;2.67;;
43700;SDS011;58809;47.984;7.964;2022-11-20T07:09:40;4.93;;;2.53;;
43700;SDS011;58809;47.984;7.964;2022-11-20T07:12:41;3.55;;;2.40;;
43700;SDS011;58809;47.984;7.964;2022-11-20T07:15:43;4.28;;;2.70;;
43700;SDS011;58809;47.984;7.964;2022-11-20T07:18:44;2.30;;;2.10;;
43700;SDS011;58809;47.984;7.964;2022-11-20T07:21:51;3.40;;;2.63;;
43700;SDS011;58809;47.984;7.964;2022-11-20T07:24:52;3.33;;;2.65;;
43700;SDS011;58809;47.984;7.964;2022-11-20T07:27:57;4.10;;;2.78;;
43700;SDS011;58809;47.984;7.964;2022-11-20T07:31:00;3.05;;;2.50;;
43700;SDS011;58809;47.984;7.964;2022-11-20T07:34:03;2.80;;;2.50;;
43700;SDS011;58809;47.984;7.964;2022-11-20T07:37:04;4.72;;;2.70;;
43700;SDS011;58809;47.984;7.964;2022-11-20T07:40:11;2.97;;;2.53;;
43700;SDS011;58809;47.984;7.964;2022-11-20T07:43:13;3.33;;;2.70;;
43700;SDS011;58809;47.984;7.964;2022-11-20T07:46:16;3.50;;;2.92;;
43700;SDS011;58809;47.984;7.964;2022-11-20T07:49:17;3.58;;;2.50;;
43700;SDS011;58809;47.984;7.964;2022-11-20T07:52:19;2.55;;;2.22;;
43700;SDS011;58809;47.984;7.964;2022-11-20T07:55:21;3.88;;;3.13;;
43700;SDS011;58809;47.984;7.964;2022-11-20T07:58:22;4.35;;;2.95;;
43700;SDS011;58809;47.984;7.964;2022-11-20T08:01:24;4.15;;;3.25;;
43700;SDS011;58809;47.984;7.964;2022-11-20T08:04:26;3.70;;;2.50;;
43700;SDS011;58809;47.984;7.964;2022-11-20T08:07:27;5.00;;;3.22;;
43700;SDS011;58809;47.984;7.964;2022-11-20T08:10:29;4.05;;;2.90;;
43700;SDS011;58809;47.984;7.964;2022-11-20T08:13:30;3.58;;;3.22;;
43700;SDS011;58809;47.984;7.964;2022-11-20T08:16:50;4.15;;;3.38;;
43700;SDS011;58809;47.984;7.964;2022-11-20T08:19:52;3.03;;;2.72;;
43700;SDS011;58809;47.984;7.964;2022-11-20T08:23:01;6.38;;;3.40;;
43700;SDS011;58809;47.984;7.964;2022-11-20T08:26:04;3.72;;;2.78;;
43700;SDS011;58809;47.984;7.964;2022-11-20T08:29:06;5.82;;;3.70;;
43700;SDS011;58809;47.984;7.964;2022-11-20T08:32:25;4.60;;;3.45;;
43700;SDS011;58809;47.984;7.964;2022-11-20T08:35:26;5.20;;;3.40;;
43700;SDS011;58809;47.984;7.964;2022-11-20T08:38:28;4.95;;;3.75;;
43700;SDS011;58809;47.984;7.964;2022-11-20T08:41:31;7.53;;;3.67;;
43700;SDS011;58809;47.984;7.964;2022-11-20T08:44:34;4.32;;;3.60;;
43700;SDS011;58809;47.984;7.964;2022-11-20T08:47:36;5.03;;;3.47;;
43700;SDS011;58809;47.984;7.964;2022-11-20T08:50:37;5.13;;;3.65;;
43700;SDS011;58809;47.984;7.964;2022-11-20T08:53:39;4.45;;;3.88;;
43700;SDS011;58809;47.984;7.964;2022-11-20T08:56:41;4.15;;;3.17;;
43700;SDS011;58809;47.984;7.964;2022-11-20T08:59:42;8.93;;;5.45;;
43700;SDS011;58809;47.984;7.964;2022-11-20T09:03:04;5.50;;;4.18;;
43700;SDS011;58809;47.984;7.964;2022-11-20T09:06:06;6.57;;;3.80;;
43700;SDS011;58809;47.984;7.964;2022-11-20T09:09:09;4.38;;;3.78;;
43700;SDS011;58809;47.984;7.964;2022-11-20T09:12:11;5.28;;;3.58;;
43700;SDS011;58809;47.984;7.964;2022-11-20T09:15:21;3.90;;;3.47;;
43700;SDS011;58809;47.984;7.964;2022-11-20T09:18:24;3.25;;;2.60;;
43700;SDS011;58809;47.984;7.964;2022-11-20T09:21:26;4.53;;;3.22;;
43700;SDS011;58809;47.984;7.964;2022-11-20T09:24:28;7.65;;;4.00;;
43700;SDS011;58809;47.984;7.964;2022-11-20T09:27:29;4.38;;;3.17;;
43700;SDS011;58809;47.984;7.964;2022-11-20T09:30:31;5.03;;;3.40;;
43700;SDS011;58809;47.984;7.964;2022-11-20T09:33:32;7.15;;;3.78;;
43700;SDS011;58809;47.984;7.964;2022-11-20T09:36:34;36.83;;;5.72;;
43700;SDS011;58809;47.984;7.964;2022-11-20T09:39:35;5.20;;;3.35;;
43700;SDS011;58809;47.984;7.964;2022-11-20T09:42:44;6.72;;;3.88;;
43700;SDS011;58809;47.984;7.964;2022-11-20T09:56:06;3.67;;;2.60;;
43700;SDS011;58809;47.984;7.964;2022-11-20T09:59:18;5.65;;;3.78;;
43700;SDS011;58809;47.984;7.964;2022-11-20T10:05:54;3.63;;;2.80;;
43700;SDS011;58809;47.984;7.964;2022-11-20T10:12:15;5.85;;;3.03;;
43700;SDS011;58809;47.984;7.964;2022-11-20T10:25:43;4.55;;;2.85;;
43700;SDS011;58809;47.984;7.964;2022-11-20T10:29:13;6.68;;;3.30;;
43700;SDS011;58809;47.984;7.964;2022-11-20T10:32:18;3.95;;;2.85;;
43700;SDS011;58809;47.984;7.964;2022-11-20T10:35:38;4.97;;;3.03;;
43700;SDS011;58809;47.984;7.964;2022-11-20T10:38:46;5.30;;;3.53;;
43700;SDS011;58809;47.984;7.964;2022-11-20T10:41:51;2.88;;;2.47;;
43700;SDS011;58809;47.984;7.964;2022-11-20T10:44:58;4.53;;;3.42;;
43700;SDS011;58809;47.984;7.964;2022-11-20T10:51:37;4.38;;;2.58;;
43700;SDS011;58809;47.984;7.964;2022-11-20T10:58:40;3.53;;;2.88;;
43700;SDS011;58809;47.984;7.964;2022-11-20T11:02:14;3.53;;;2.92;;
43700;SDS011;58809;47.984;7.964;2022-11-20T11:05:37;3.45;;;2.80;;
43700;SDS011;58809;47.984;7.964;2022-11-20T11:08:42;5.78;;;3.30;;
43700;SDS011;58809;47.984;7.964;2022-11-20T11:11:45;7.35;;;2.95;;
43700;SDS011;58809;47.984;7.964;2022-11-20T11:14:48;6.78;;;3.42;;
43700;SDS011;58809;47.984;7.964;2022-11-20T11:17:51;4.53;;;3.50;;
43700;SDS011;58809;47.984;7.964;2022-11-20T11:20:53;3.45;;;2.85;;
43700;SDS011;58809;47.984;7.964;2022-11-20T11:23:59;3.70;;;3.03;;
43700;SDS011;58809;47.984;7.964;2022-11-20T11:27:22;5.05;;;2.83;;
43700;SDS011;58809;47.984;7.964;2022-11-20T11:30:25;4.60;;;2.95;;
43700;SDS011;58809;47.984;7.964;2022-11-20T11:33:29;6.00;;;2.53;;
43700;SDS011;58809;47.984;7.964;2022-11-20T11:36:34;5.10;;;2.90;;
43700;SDS011;58809;47.984;7.964;2022-11-20T11:39:36;8.00;;;3.70;;
43700;SDS011;58809;47.984;7.964;2022-11-20T11:42:43;3.40;;;2.35;;
43700;SDS011;58809;47.984;7.964;2022-11-20T11:45:52;4.32;;;2.40;;
43700;SDS011;58809;47.984;7.964;2022-11-20T11:48:56;3.33;;;2.63;;
43700;SDS011;58809;47.984;7.964;2022-11-20T11:52:18;3.58;;;2.30;;
43700;SDS011;58809;47.984;7.964;2022-11-20T12:02:01;3.63;;;2.45;;
43700;SDS011;58809;47.984;7.964;2022-11-20T12:05:24;4.28;;;2.85;;
43700;SDS011;58809;47.984;7.964;2022-11-20T12:12:04;3.97;;;2.50;;
43700;SDS011;58809;47.984;7.964;2022-11-20T12:15:11;4.20;;;2.75;;
43700;SDS011;58809;47.984;7.964;2022-11-20T12:18:18;5.13;;;2.78;;
43700;SDS011;58809;47.984;7.964;2022-11-20T12:28:19;4.90;;;2.00;;
43700;SDS011;58809;47.984;7.964;2022-11-20T12:34:47;2.37;;;2.13;;
43700;SDS011;58809;47.984;7.964;2022-11-20T12:38:14;4.18;;;2.30;;
43700;SDS011;58809;47.984;7.964;2022-11-20T12:45:59;3.47;;;2.50;;
43700;SDS011;58809;47.984;7.964;2022-11-20T12:53:27;3.65;;;2.55;;
43700;SDS011;58809;47.984;7.964;2022-11-20T13:06:13;3.60;;;2.97;;
43700;SDS011;58809;47.984;7.964;2022-11-20T13:09:18;3.08;;;2.55;;
43700;SDS011;58809;47.984;7.964;2022-11-20T13:18:53;5.05;;;3.20;;
43700;SDS011;58809;47.984;7.964;2022-11-20T13:21:55;6.75;;;3.45;;
43700;SDS011;58809;47.984;7.964;2022-11-20T13:24:56;4.65;;;3.20;;
43700;SDS011;58809;47.984;7.964;2022-11-20T13:27:59;6.28;;;3.05;;
43700;SDS011;58809;47.984;7.964;2022-11-20T13:34:04;4.85;;;2.83;;
43700;SDS011;58809;47.984;7.964;2022-11-20T13:37:23;4.30;;;3.00;;
43700;SDS011;58809;47.984;7.964;2022-11-20T13:40:36;7.07;;;3.03;;
43700;SDS011;58809;47.984;7.964;2022-11-20T13:43:40;4.38;;;3.00;;
43700;SDS011;58809;47.984;7.964;2022-11-20T13:46:44;5.45;;;3.28;;
43700;SDS011;58809;47.984;7.964;2022-11-20T13:49:47;3.13;;;2.08;;
43700;SDS011;58809;47.984;7.964;2022-11-20T13:56:08;3.28;;;2.40;;
43700;SDS011;58809;47.984;7.964;2022-11-20T14:02:58;4.78;;;2.45;;
43700;SDS011;58809;47.984;7.964;2022-11-20T14:06:26;3.05;;;2.10;;
43700;SDS011;58809;47.984;7.964;2022-11-20T14:09:33;2.63;;;1.75;;
43700;SDS011;58809;47.984;7.964;2022-11-20T14:12:44;7.00;;;2.30;;
43700;SDS011;58809;47.984;7.964;2022-11-20T14:15:47;2.63;;;2.05;;
43700;SDS011;58809;47.984;7.964;2022-11-20T14:18:49;3.25;;;2.30;;
43700;SDS011;58809;47.984;7.964;2022-11-20T14:21:52;4.90;;;2.25;;
43700;SDS011;58809;47.984;7.964;2022-11-20T14:28:20;2.53;;;1.95;;
43700;SDS011;58809;47.984;7.964;2022-11-20T14:31:32;3.33;;;2.20;;
43700;SDS011;58809;47.984;7.964;2022-11-20T14:34:37;2.35;;;1.98;;
43700;SDS011;58809;47.984;7.964;2022-11-20T14:37:41;3.97;;;2.17;;
43700;SDS011;58809;47.984;7.964;2022-11-20T14:40:43;4.80;;;2.80;;
43700;SDS011;58809;47.984;7.964;2022-11-20T14:43:51;7.82;;;2.67;;
43700;SDS011;58809;47.984;7.964;2022-11-20T14:47:03;4.30;;;2.35;;
43700;SDS011;58809;47.984;7.964;2022-11-20T14:50:07;4.47;;;2.05;;
43700;SDS011;58809;47.984;7.964;2022-11-20T14:53:22;4.70;;;2.75;;
43700;SDS011;58809;47.984;7.964;2022-11-20T14:56:25;4.13;;;2.25;;
43700;SDS011;58809;47.984;7.964;2022-11-20T14:59:27;3.17;;;2.30;;
43700;SDS011;58809;47.984;7.964;2022-11-20T15:02:31;7.13;;;3.85;;
43700;SDS011;58809;47.984;7.964;2022-11-20T15:05:46;12.82;;;8.13;;
43700;SDS011;58809;47.984;7.964;2022-11-20T15:08:53;8.95;;;4.82;;
43700;SDS011;58809;47.984;7.964;2022-11-20T15:11:58;4.57;;;3.00;;
43700;SDS011;58809;47.984;7.964;2022-11-20T15:15:02;3.70;;;2.30;;
43700;SDS011;58809;47.984;7.964;2022-11-20T15:18:10;4.25;;;2.70;;
43700;SDS011;58809;47.984;7.964;2022-11-20T15:21:15;3.97;;;2.45;;
43700;SDS011;58809;47.984;7.964;2022-11-20T15:24:19;4.47;;;2.90;;
43700;SDS011;58809;47.984;7.964;2022-11-20T15:27:22;10.43;;;5.43;;
43700;SDS011;58809;47.984;7.964;2022-11-20T15:30:24;14.85;;;8.13;;
43700;SDS011;58809;47.984;7.964;2022-11-20T15:33:26;8.00;;;4.15;;
43700;SDS011;58809;47.984;7.964;2022-11-20T15:36:27;6.43;;;4.50;;
43700;SDS011;58809;47.984;7.964;2022-11-20T15:39:29;6.00;;;2.60;;
43700;SDS011;58809;47.984;7.964;2022-11-20T15:42:31;7.47;;;3.60;;
43700;SDS011;58809;47.984;7.964;2022-11-20T15:45:39;4.82;;;3.72;;
43700;SDS011;58809;47.984;7.964;2022-11-20T15:48:54;2.35;;;1.80;;
43700;SDS011;58809;47.984;7.964;2022-11-20T15:51:57;3.13;;;1.80;;
43700;SDS011;58809;47.984;7.964;2022-11-20T15:54:59;3.70;;;2.65;;
43700;SDS011;58809;47.984;7.964;2022-11-20T15:58:07;3.10;;;1.80;;
43700;SDS011;58809;47.984;7.964;2022-11-20T16:01:12;4.88;;;1.75;;
43700;SDS011;58809;47.984;7.964;2022-11-20T16:04:16;2.88;;;2.20;;
43700;SDS011;58809;47.984;7.964;2022-11-20T16:07:17;5.18;;;2.85;;
43700;SDS011;58809;47.984;7.964;2022-11-20T16:10:19;3.53;;;2.28;;
43700;SDS011;58809;47.984;7.964;2022-11-20T16:13:21;4.10;;;2.20;;
43700;SDS011;58809;47.984;7.964;2022-11-20T16:16:41;3.30;;;2.22;;
43700;SDS011;58809;47.984;7.964;2022-11-20T16:19:45;2.83;;;1.90;;
43700;SDS011;58809;47.984;7.964;2022-11-20T16:22:46;3.85;;;1.95;;
43700;SDS011;58809;47.984;7.964;2022-11-20T16:26:10;3.67;;;1.85;;
43700;SDS011;58809;47.984;7.964;2022-11-20T16:29:11;2.38;;;1.55;;
43700;SDS011;58809;47.984;7.964;2022-11-20T16:32:12;3.22;;;2.40;;
43700;SDS011;58809;47.984;7.964;2022-11-20T16:35:14;1.77;;;1.52;;
43700;SDS011;58809;47.984;7.964;2022-11-20T16:38:15;1.95;;;1.60;;
43700;SDS011;58809;47.984;7.964;2022-11-20T16:41:17;3.40;;;2.25;;
43700;SDS011;58809;47.984;7.964;2022-11-20T16:44:18;3.83;;;2.65;;
43700;SDS011;58809;47.984;7.964;2022-11-20T16:47:20;3.55;;;1.83;;
43700;SDS011;58809;47.984;7.964;2022-11-20T16:50:22;2.22;;;1.35;;
43700;SDS011;58809;47.984;7.964;2022-11-20T16:53:23;3.20;;;2.38;;
43700;SDS011;58809;47.984;7.964;2022-11-20T16:56:25;2.05;;;1.80;;
43700;SDS011;58809;47.984;7.964;2022-11-20T16:59:27;4.47;;;3.42;;
43700;SDS011;58809;47.984;7.964;2022-11-20T17:02:29;1.65;;;1.40;;
43700;SDS011;58809;47.984;7.964;2022-11-20T17:05:30;1.67;;;1.50;;
43700;SDS011;58809;47.984;7.964;2022-11-20T17:08:32;2.63;;;2.00;;
43700;SDS011;58809;47.984;7.964;2022-11-20T17:11:35;2.05;;;1.60;;
43700;SDS011;58809;47.984;7.964;2022-11-20T17:14:37;1.60;;;1.50;;
43700;SDS011;58809;47.984;7.964;2022-11-20T17:17:39;4.57;;;3.13;;
43700;SDS011;58809;47.984;7.964;2022-11-20T17:20:40;2.75;;;2.17;;
43700;SDS011;58809;47.984;7.964;2022-11-20T17:23:43;2.58;;;2.33;;
43700;SDS011;58809;47.984;7.964;2022-11-20T17:26:47;6.03;;;2.50;;
43700;SDS011;58809;47.984;7.964;2022-11-20T17:29:53;3.00;;;2.25;;
43700;SDS011;58809;47.984;7.964;2022-11-20T17:33:12;3.45;;;2.97;;
43700;SDS011;58809;47.984;7.964;2022-11-20T17:36:29;4.57;;;2.65;;
43700;SDS011;58809;47.984;7.964;2022-11-20T17:39:46;4.63;;;2.35;;
43700;SDS011;58809;47.984;7.964;2022-11-20T17:42:55;2.25;;;1.58;;
43700;SDS011;58809;47.984;7.964;2022-11-20T17:46:09;3.63;;;2.33;;
43700;SDS011;58809;47.984;7.964;2022-11-20T17:49:15;1.90;;;1.52;;
43700;SDS011;58809;47.984;7.964;2022-11-20T17:52:25;3.55;;;2.22;;
43700;SDS011;58809;47.984;7.964;2022-11-20T17:55:29;3.65;;;1.73;;
43700;SDS011;58809;47.984;7.964;2022-11-20T17:58:56;2.63;;;2.08;;
43700;SDS011;58809;47.984;7.964;2022-11-20T18:01:58;3.97;;;1.90;;
43700;SDS011;58809;47.984;7.964;2022-11-20T18:05:07;3.30;;;2.08;;
43700;SDS011;58809;47.984;7.964;2022-11-20T18:08:10;1.88;;;1.70;;
43700;SDS011;58809;47.984;7.964;2022-11-20T18:11:20;4.05;;;2.08;;
43700;SDS011;58809;47.984;7.964;2022-11-20T18:14:25;3.88;;;2.38;;
43700;SDS011;58809;47.984;7.964;2022-11-20T18:17:38;2.42;;;2.22;;
43700;SDS011;58809;47.984;7.964;2022-11-20T18:20:42;4.10;;;2.30;;
43700;SDS011;58809;47.984;7.964;2022-11-20T18:23:45;5.00;;;2.65;;
43700;SDS011;58809;47.984;7.964;2022-11-20T18:27:00;3.45;;;2.58;;
43700;SDS011;58809;47.984;7.964;2022-11-20T18:30:04;3.10;;;2.35;;
43700;SDS011;58809;47.984;7.964;2022-11-20T18:33:09;2.17;;;1.98;;
43700;SDS011;58809;47.984;7.964;2022-11-20T18:36:28;3.60;;;2.92;;
43700;SDS011;58809;47.984;7.964;2022-11-20T18:39:38;3.70;;;2.83;;
43700;SDS011;58809;47.984;7.964;2022-11-20T18:42:59;4.63;;;2.90;;
43700;SDS011;58809;47.984;7.964;2022-11-20T18:46:38;3.30;;;2.22;;
43700;SDS011;58809;47.984;7.964;2022-11-20T18:49:41;4.07;;;2.10;;
43700;SDS011;58809;47.984;7.964;2022-11-20T18:52:46;3.45;;;2.30;;
43700;SDS011;58809;47.984;7.964;2022-11-20T18:55:48;4.63;;;3.35;;
43700;SDS011;58809;47.984;7.964;2022-11-20T18:58:50;6.38;;;4.03;;
43700;SDS011;58809;47.984;7.964;2022-11-20T19:01:51;5.65;;;3.70;;
43700;SDS011;58809;47.984;7.964;2022-11-20T19:04:53;8.63;;;4.70;;
43700;SDS011;58809;47.984;7.964;2022-11-20T19:07:55;5.43;;;3.78;;
43700;SDS011;58809;47.984;7.964;2022-11-20T19:11:04;4.80;;;3.50;;
43700;SDS011;58809;47.984;7.964;2022-11-20T19:14:07;3.00;;;2.40;;
43700;SDS011;58809;47.984;7.964;2022-11-20T19:17:09;3.03;;;2.45;;
43700;SDS011;58809;47.984;7.964;2022-11-20T19:20:14;4.18;;;2.13;;
43700;SDS011;58809;47.984;7.964;2022-11-20T19:23:17;3.92;;;2.10;;
43700;SDS011;58809;47.984;7.964;2022-11-20T19:26:23;3.45;;;2.50;;
43700;SDS011;58809;47.984;7.964;2022-11-20T19:29:25;4.30;;;3.10;;
43700;SDS011;58809;47.984;7.964;2022-11-20T19:32:29;5.50;;;4.68;;
43700;SDS011;58809;47.984;7.964;2022-11-20T19:35:31;3.53;;;2.83;;
43700;SDS011;58809;47.984;7.964;2022-11-20T19:38:37;2.80;;;2.35;;
43700;SDS011;58809;47.984;7.964;2022-11-20T19:41:46;5.68;;;3.40;;
43700;SDS011;58809;47.984;7.964;2022-11-20T19:44:50;3.25;;;2.63;;
43700;SDS011;58809;47.984;7.964;2022-11-20T19:48:02;4.45;;;2.53;;
43700;SDS011;58809;47.984;7.964;2022-11-20T19:51:23;5.22;;;2.78;;
43700;SDS011;58809;47.984;7.964;2022-11-20T19:54:27;3.15;;;2.70;;
43700;SDS011;58809;47.984;7.964;2022-11-20T19:57:35;3.72;;;2.47;;
43700;SDS011;58809;47.984;7.964;2022-11-20T20:00:37;2.08;;;1.90;;
43700;SDS011;58809;47.984;7.964;2022-11-20T20:03:39;2.22;;;1.77;;
43700;SDS011;58809;47.984;7.964;2022-11-20T20:06:44;2.15;;;1.55;;
43700;SDS011;58809;47.984;7.964;2022-11-20T20:09:45;2.53;;;2.00;;
43700;SDS011;58809;47.984;7.964;2022-11-20T20:12:47;0.70;;;0.70;;